Decoded Metar for LFMT (MONTPELLIER in FRANCE) (IATA:MPL) | Meteo·Mobile Aviation Weather
aviador You're here:

LFMT Decoded Metar

MONTPELLIER in FRANCE
Report Time2019-02-22 00:00:00
UTC Time2019-02-22 00:28:22
Flight Rules mvfr MVFR
Wind300° at 03 kt
W.Decomp.*RWY 30: 3.0 kt HW 0 kt LCW
W.Rank300° ranks 3
Current wind is below 300° avg. (10.3)
Visibility5000 m
Phenomena:Mist
Clouds:N/A
Expected CloudBase > 400 ft AGL from Temp-Dew spread
CeilingNone
Temp04°C (ISA -11)
Dew Point03°C (93% RH)
AAT1.4°C
QNH1029 hPa
Density Alt-1,749 ft
Elevation20 ft
Report Wrong Elevation
Raw Report
LFMT 220000Z AUTO 30003KT 5000 BR NSC 04/03 Q1029 NOSIG=

Extra information for LFMT:More info

Metar Taf Metar & Taf Last 4 Metars F.Rules Stats Wind Profile Meteogram Temp Stats Airport Information Weather charts Add Link Nearby VenuesMetar ALERT Operation Metar Decoded Social comments